TimeEDT,TemperatureF,Dew PointF,Humidity,Sea Level PressureIn,VisibilityMPH,Wind Direction,Wind SpeedMPH,Gust SpeedMPH,PrecipitationIn,Events,Conditions,WindDirDegrees,DateUTC
12:55 AM,57.9,52.0,81,30.14,10.0,ESE,8.1,-,N/A,,Clear,120,2013-09-28 04:55:00
1:55 AM,57.9,53.1,84,30.14,10.0,SE,8.1,-,N/A,,Clear,130,2013-09-28 05:55:00
2:55 AM,57.0,52.0,83,30.14,10.0,ESE,6.9,-,N/A,,Clear,120,2013-09-28 06:55:00
3:55 AM,55.9,51.1,84,30.12,10.0,ESE,9.2,-,N/A,,Clear,120,2013-09-28 07:55:00
4:55 AM,55.0,50.0,83,30.13,10.0,ESE,9.2,-,N/A,,Clear,120,2013-09-28 08:55:00
5:55 AM,54.0,50.0,86,30.13,10.0,ESE,5.8,-,N/A,,Clear,120,2013-09-28 09:55:00
6:55 AM,54.0,51.1,90,30.12,8.0,ESE,8.1,-,N/A,,Clear,110,2013-09-28 10:55:00
7:55 AM,54.0,51.1,90,30.13,6.0,ESE,8.1,-,N/A,,Partly Cloudy,110,2013-09-28 11:55:00
8:55 AM,57.0,53.1,87,30.14,10.0,SE,8.1,-,N/A,,Clear,130,2013-09-28 12:55:00
9:55 AM,62.1,53.1,72,30.13,10.0,SE,6.9,-,N/A,,Clear,140,2013-09-28 13:55:00
10:55 AM,66.9,54.0,63,30.12,10.0,SSE,9.2,-,N/A,,Partly Cloudy,150,2013-09-28 14:55:00
11:55 AM,71.1,55.0,57,30.10,10.0,SSE,8.1,-,N/A,,Partly Cloudy,150,2013-09-28 15:55:00
12:55 PM,75.0,55.9,51,30.08,10.0,South,10.4,20.7,N/A,,Partly Cloudy,170,2013-09-28 16:55:00
1:55 PM,78.1,53.1,42,30.04,10.0,South,15.0,24.2,N/A,,Partly Cloudy,180,2013-09-28 17:55:00
2:55 PM,78.1,53.1,42,30.01,10.0,South,19.6,26.5,N/A,,Scattered Clouds,180,2013-09-28 18:55:00
3:55 PM,77.0,53.1,43,29.99,10.0,South,11.5,-,N/A,,Scattered Clouds,180,2013-09-28 19:55:00
4:55 PM,79.0,53.1,40,29.98,10.0,South,10.4,-,N/A,,Scattered Clouds,180,2013-09-28 20:55:00
5:55 PM,77.0,51.1,40,29.97,10.0,South,11.5,-,N/A,,Scattered Clouds,190,2013-09-28 21:55:00
6:55 PM,75.0,51.1,43,29.95,10.0,SSE,8.1,-,N/A,,Scattered Clouds,160,2013-09-28 22:55:00
7:55 PM,71.1,52.0,51,29.93,10.0,SE,9.2,-,N/A,,Scattered Clouds,140,2013-09-28 23:55:00
8:55 PM,71.1,52.0,51,29.92,10.0,SE,9.2,-,N/A,,Scattered Clouds,140,2013-09-29 00:55:00
9:55 PM,72.0,52.0,49,29.92,10.0,SSE,11.5,-,N/A,,Overcast,150,2013-09-29 01:55:00
10:55 PM,73.9,53.1,48,29.91,10.0,South,13.8,23.0,N/A,,Overcast,170,2013-09-29 02:55:00
11:55 PM,75.9,54.0,46,29.90,10.0,South,18.4,28.8,N/A,,Overcast,190,2013-09-29 03:55:00